createdAt,value
2019-02-27T00:01:54.899Z,58.70
2019-02-27T00:04:23.395Z,58.50
2019-02-27T00:06:51.833Z,58.00
2019-02-27T00:09:20.275Z,57.70
2019-02-27T00:11:48.704Z,57.40
2019-02-27T00:14:17.256Z,57.20
2019-02-27T00:16:45.679Z,57.00
2019-02-27T00:19:33.467Z,56.90
2019-02-27T00:22:01.917Z,57.30
2019-02-27T00:24:30.619Z,56.60
2019-02-27T00:26:59.083Z,57.10
2019-02-27T00:29:28.976Z,56.60
2019-02-27T00:31:57.686Z,56.80
2019-02-27T00:34:38.020Z,57.00
2019-02-27T00:37:06.476Z,57.30
2019-02-27T00:39:34.899Z,57.60
2019-02-27T00:42:03.330Z,58.90
2019-02-27T00:44:34.015Z,59.20
2019-02-27T00:47:01.915Z,59.50
2019-02-27T00:49:32.347Z,59.90
2019-02-27T00:52:00.603Z,60.10
2019-02-27T00:54:32.074Z,60.30
2019-02-27T00:57:00.527Z,60.70
2019-02-27T00:59:32.929Z,61.10
2019-02-27T01:01:59.125Z,61.60
2019-02-27T01:04:27.569Z,61.80
2019-02-27T01:06:55.988Z,62.10
2019-02-27T01:09:24.434Z,62.30
2019-02-27T01:11:52.845Z,62.50
2019-02-27T01:14:36.950Z,62.50
2019-02-27T01:17:03.882Z,62.60
2019-02-27T01:19:32.302Z,62.70
2019-02-27T01:22:20.091Z,62.90
2019-02-27T01:25:08.038Z,63.00
2019-02-27T01:27:38.097Z,63.30
2019-02-27T01:33:30.853Z,64.20
2019-02-27T01:35:59.315Z,64.30
2019-02-27T01:38:27.747Z,64.70
2019-02-27T01:40:56.201Z,64.90
2019-02-27T01:43:44.250Z,65.10
2019-02-27T01:46:27.756Z,65.40
2019-02-27T01:48:55.577Z,65.60
2019-02-27T01:51:25.771Z,65.90
2019-02-27T01:53:54.155Z,66.30
2019-02-27T01:56:22.588Z,66.70
2019-02-27T01:58:51.060Z,66.90
2019-02-27T02:01:19.485Z,67.30
2019-02-27T02:03:48.177Z,67.90
2019-02-27T02:06:16.653Z,68.30
2019-02-27T02:09:08.957Z,69.00
2019-02-27T02:11:37.444Z,69.40
2019-02-27T02:14:14.606Z,69.70
2019-02-27T02:17:20.165Z,70.20
2019-02-27T02:20:00.384Z,70.50
2019-02-27T02:22:31.880Z,70.40
2019-02-27T02:25:15.456Z,70.40
2019-02-27T02:27:49.631Z,70.60
2019-02-27T02:34:08.019Z,70.60
2019-02-27T02:36:39.557Z,70.80
2019-02-27T02:39:22.916Z,71.00
2019-02-27T02:42:06.413Z,71.30
2019-02-27T02:44:49.920Z,71.10
2019-02-27T02:47:24.181Z,71.20
2019-02-27T02:49:55.695Z,71.40
2019-02-27T02:53:12.129Z,71.70
2019-02-27T02:55:55.311Z,71.60
2019-02-27T02:58:38.832Z,71.40
2019-02-27T03:01:13.916Z,71.60
2019-02-27T03:03:46.120Z,71.70
2019-02-27T03:06:47.588Z,71.80
2019-02-27T03:09:37.217Z,71.60
2019-02-27T03:12:08.791Z,71.30
2019-02-27T03:15:04.056Z,71.30
2019-02-27T03:17:54.817Z,71.60
2019-02-27T03:20:44.730Z,71.60
2019-02-27T03:23:52.200Z,71.80
2019-02-27T03:26:54.267Z,71.80
2019-02-27T03:29:37.860Z,71.60
2019-02-27T03:32:44.896Z,71.60
2019-02-27T03:35:43.128Z,71.80
2019-02-27T03:38:37.073Z,71.80
2019-02-27T03:41:30.993Z,72.10
2019-02-27T03:44:26.289Z,72.20
2019-02-27T03:47:16.836Z,72.10
2019-02-27T03:50:02.030Z,72.50
2019-02-27T03:55:57.869Z,72.80
2019-02-27T03:58:41.543Z,72.90
2019-02-27T04:01:32.559Z,73.00
2019-02-27T04:04:12.919Z,73.30
2019-02-27T04:07:18.690Z,73.30
2019-02-27T04:09:47.125Z,74.10
2019-02-27T04:12:16.619Z,73.40
2019-02-27T04:14:45.792Z,73.70
2019-02-27T04:17:14.268Z,73.80
2019-02-27T04:19:42.765Z,73.80
2019-02-27T04:22:11.184Z,73.80
2019-02-27T04:24:39.738Z,73.70
2019-02-27T04:27:08.155Z,73.90
2019-02-27T04:29:40.875Z,73.70
2019-02-27T04:32:09.605Z,73.60
2019-02-27T04:34:36.924Z,73.70
2019-02-27T04:37:05.343Z,73.90
2019-02-27T04:39:35.806Z,73.90
2019-02-27T04:42:03.934Z,74.00
2019-02-27T04:44:32.396Z,74.20
2019-02-27T04:47:06.475Z,74.20
2019-02-27T04:49:37.712Z,74.30
2019-02-27T04:52:05.066Z,74.40
2019-02-27T04:54:35.073Z,74.60
2019-02-27T04:57:03.762Z,74.90
2019-02-27T04:59:32.216Z,75.00
2019-02-27T05:02:00.655Z,75.10
2019-02-27T05:04:29.170Z,75.20
2019-02-27T05:06:57.637Z,75.40
2019-02-27T05:09:26.112Z,75.60
2019-02-27T05:11:54.518Z,75.80
2019-02-27T05:14:24.847Z,76.10
2019-02-27T05:16:53.178Z,76.30
2019-02-27T05:19:21.603Z,76.70
2019-02-27T05:21:52.243Z,76.90
2019-02-27T05:24:20.211Z,77.50
2019-02-27T05:26:48.647Z,77.80
2019-02-27T05:29:37.558Z,78.00
2019-02-27T05:32:06.667Z,78.00
2019-02-27T05:34:35.088Z,78.10
2019-02-27T05:37:05.311Z,78.30
2019-02-27T05:39:53.043Z,78.90
2019-02-27T05:42:21.503Z,78.80
2019-02-27T05:44:50.301Z,79.10
2019-02-27T05:47:18.796Z,79.50
2019-02-27T05:49:47.238Z,79.60
2019-02-27T05:52:15.651Z,79.80
2019-02-27T05:55:05.947Z,79.90
2019-02-27T05:57:33.682Z,79.90
2019-02-27T06:00:03.377Z,80.10
2019-02-27T06:02:32.047Z,80.20
2019-02-27T06:05:06.874Z,80.40
2019-02-27T06:07:35.354Z,80.60
2019-02-27T06:10:05.871Z,80.90
2019-02-27T06:12:34.471Z,81.00
2019-02-27T06:15:03.835Z,81.20
2019-02-27T06:17:42.910Z,81.30
2019-02-27T06:20:02.419Z,81.50
2019-02-27T06:22:31.103Z,81.60
2019-02-27T06:25:00.806Z,81.90
2019-02-27T06:27:29.247Z,82.10
2019-02-27T06:29:59.690Z,82.10
2019-02-27T06:32:27.891Z,82.20
2019-02-27T06:34:59.280Z,82.50
2019-02-27T06:37:26.607Z,82.60
2019-02-27T06:39:55.042Z,82.80
2019-02-27T06:42:23.564Z,82.90
2019-02-27T06:45:13.234Z,83.10
2019-02-27T06:47:41.959Z,83.30
2019-02-27T06:50:17.838Z,83.50
2019-02-27T06:52:46.274Z,83.60
2019-02-27T06:55:15.356Z,83.70
2019-02-27T06:57:44.047Z,83.90
2019-02-27T07:00:15.567Z,84.00
2019-02-27T07:03:03.344Z,84.10
2019-02-27T07:05:31.791Z,84.10
2019-02-27T07:08:02.147Z,84.20
2019-02-27T07:10:30.406Z,84.40
2019-02-27T07:12:58.841Z,84.40
2019-02-27T07:15:27.325Z,85.40
2019-02-27T07:17:55.809Z,84.70
2019-02-27T07:20:25.228Z,84.80
2019-02-27T07:22:55.297Z,84.90
2019-02-27T07:25:23.731Z,85.00
2019-02-27T07:27:52.252Z,85.20
2019-02-27T07:30:21.261Z,85.20
2019-02-27T07:32:49.700Z,85.20
2019-02-27T07:35:18.537Z,85.20
2019-02-27T07:37:48.166Z,85.10
2019-02-27T07:40:20.660Z,85.00
2019-02-27T07:42:49.253Z,85.00
2019-02-27T07:45:19.015Z,84.90
2019-02-27T07:47:47.426Z,85.00
2019-02-27T07:50:35.213Z,84.90
2019-02-27T07:53:03.651Z,84.70
2019-02-27T07:55:32.064Z,84.70
2019-02-27T07:58:02.920Z,84.60
2019-02-27T08:00:31.392Z,84.40
2019-02-27T08:03:00.000Z,84.50
2019-02-27T08:05:29.189Z,84.50
2019-02-27T08:08:17.091Z,84.40
2019-02-27T08:10:45.516Z,84.30
2019-02-27T08:13:13.962Z,84.30
2019-02-27T08:15:42.379Z,84.40
2019-02-27T08:18:10.876Z,84.50
2019-02-27T08:20:39.419Z,84.40
2019-02-27T08:23:08.719Z,84.40
2019-02-27T08:25:37.169Z,84.30
2019-02-27T08:28:05.603Z,84.20
2019-02-27T08:30:53.438Z,84.10
2019-02-27T08:33:41.227Z,84.00
2019-02-27T08:36:09.655Z,83.80
2019-02-27T08:38:57.440Z,83.80
2019-02-27T08:41:25.859Z,83.80
2019-02-27T08:44:13.655Z,83.70
2019-02-27T08:46:42.109Z,83.80
2019-02-27T08:49:31.798Z,83.80
2019-02-27T08:52:00.035Z,83.80
2019-02-27T08:54:32.177Z,84.10
2019-02-27T08:56:58.631Z,84.20
2019-02-27T08:59:27.072Z,84.10
2019-02-27T09:02:01.154Z,84.30
2019-02-27T09:04:29.637Z,84.40
2019-02-27T09:07:02.129Z,84.30
2019-02-27T09:09:51.185Z,84.50
2019-02-27T09:12:18.002Z,84.30
2019-02-27T09:14:46.461Z,84.40
2019-02-27T09:17:14.900Z,84.60
2019-02-27T09:19:45.508Z,84.80
2019-02-27T09:22:14.990Z,85.00
2019-02-27T09:24:43.797Z,83.90
2019-02-27T09:27:12.267Z,84.00
2019-02-27T09:29:40.696Z,84.10
2019-02-27T09:32:11.406Z,84.20
2019-02-27T09:34:39.675Z,84.20
2019-02-27T09:37:08.137Z,84.00
2019-02-27T09:39:36.556Z,83.80
2019-02-27T09:45:00.735Z,83.40
2019-02-27T09:47:29.341Z,83.30
2019-02-27T09:49:57.848Z,83.20
2019-02-27T09:52:27.792Z,83.20
2019-02-27T09:54:56.469Z,83.10
2019-02-27T09:57:44.268Z,83.00
2019-02-27T10:00:41.876Z,83.00
2019-02-27T10:03:10.315Z,83.10
2019-02-27T10:08:27.554Z,83.30
2019-02-27T10:10:55.992Z,83.30
2019-02-27T10:13:24.444Z,83.30
2019-02-27T10:16:12.243Z,83.30
2019-02-27T10:18:40.719Z,83.00
2019-02-27T10:21:28.503Z,83.90
2019-02-27T10:23:57.007Z,82.90
2019-02-27T10:26:25.464Z,83.00
2019-02-27T10:28:53.886Z,83.00
2019-02-27T10:31:41.695Z,83.00
2019-02-27T10:34:10.128Z,82.70
2019-02-27T10:36:39.343Z,82.60
2019-02-27T10:39:08.209Z,82.50
2019-02-27T10:41:36.672Z,82.30
2019-02-27T10:44:05.143Z,82.30
2019-02-27T10:46:33.624Z,81.70
2019-02-27T10:49:02.123Z,81.30
2019-02-27T10:51:30.651Z,80.70
2019-02-27T10:54:01.904Z,80.50
2019-02-27T10:59:30.516Z,80.10
2019-02-27T11:01:58.942Z,80.00
2019-02-27T11:04:27.379Z,80.20
2019-02-27T11:06:55.828Z,80.00
2019-02-27T11:09:26.438Z,79.70
2019-02-27T11:11:55.103Z,79.00
2019-02-27T11:14:24.381Z,78.30
2019-02-27T11:17:12.171Z,77.70
2019-02-27T11:19:40.594Z,77.30
2019-02-27T11:22:09.063Z,77.50
2019-02-27T11:24:37.651Z,76.80
2019-02-27T11:27:09.002Z,76.70
2019-02-27T11:29:59.609Z,76.30
2019-02-27T11:32:27.024Z,76.00
2019-02-27T11:34:55.479Z,75.90
2019-02-27T11:37:23.906Z,76.30
2019-02-27T11:39:52.371Z,75.00
2019-02-27T11:42:40.173Z,74.40
2019-02-27T11:45:11.693Z,74.20
2019-02-27T11:47:59.486Z,73.50
2019-02-27T11:50:27.930Z,73.30
2019-02-27T11:52:56.388Z,73.00
2019-02-27T11:55:24.835Z,72.70
2019-02-27T11:57:53.378Z,72.50
2019-02-27T12:00:34.046Z,71.90
2019-02-27T12:03:02.468Z,71.70
2019-02-27T12:05:34.011Z,71.20
2019-02-27T12:08:01.153Z,70.50
2019-02-27T12:10:31.742Z,70.20
2019-02-27T12:13:01.401Z,70.00
2019-02-27T12:15:31.444Z,69.50
2019-02-27T12:18:19.227Z,68.90
2019-02-27T12:20:47.716Z,68.70
2019-02-27T12:23:16.205Z,68.70
2019-02-27T12:25:44.671Z,68.50
2019-02-27T12:28:15.236Z,67.80
2019-02-27T12:30:43.539Z,67.90
2019-02-27T12:33:31.335Z,67.80
2019-02-27T12:35:59.816Z,67.80
2019-02-27T12:38:28.391Z,67.70
2019-02-27T12:41:16.223Z,67.30
2019-02-27T12:43:44.652Z,66.30
2019-02-27T12:46:13.095Z,65.50
2019-02-27T12:49:00.888Z,64.90
2019-02-27T12:51:29.319Z,64.20
2019-02-27T12:53:57.762Z,63.80
2019-02-27T12:56:26.190Z,62.90
2019-02-27T12:58:58.236Z,62.30
2019-02-27T13:01:24.869Z,61.60
2019-02-27T13:03:53.304Z,60.70
2019-02-27T13:06:41.074Z,59.90
2019-02-27T13:09:15.399Z,58.90
2019-02-27T13:12:03.166Z,58.70
2019-02-27T13:14:33.280Z,58.30
2019-02-27T13:17:01.765Z,58.40
2019-02-27T13:19:30.264Z,58.40
2019-02-27T13:21:58.710Z,57.90
2019-02-27T13:24:27.204Z,57.60
2019-02-27T13:26:55.657Z,56.90
2019-02-27T13:29:24.065Z,56.60
2019-02-27T13:31:52.521Z,56.60
2019-02-27T13:34:25.271Z,56.40
2019-02-27T13:37:13.064Z,56.40
2019-02-27T13:39:47.483Z,56.30
2019-02-27T13:42:18.346Z,56.40
2019-02-27T13:48:05.930Z,57.00
2019-02-27T13:50:33.650Z,57.50
2019-02-27T13:53:02.109Z,56.30
2019-02-27T13:55:30.616Z,54.60
2019-02-27T13:58:03.444Z,52.30
2019-02-27T14:00:37.855Z,49.90
2019-02-27T14:03:25.651Z,47.30
2019-02-27T14:05:54.072Z,44.30
2019-02-27T14:08:43.825Z,40.20
2019-02-27T14:11:24.890Z,38.50
2019-02-27T14:13:54.191Z,36.00
2019-02-27T14:16:22.647Z,34.00
2019-02-27T14:18:51.130Z,32.10
2019-02-27T14:21:19.570Z,31.40
2019-02-27T14:23:48.104Z,30.10
2019-02-27T14:26:16.552Z,29.50
2019-02-27T14:28:44.991Z,28.50
2019-02-27T14:31:13.435Z,28.10
2019-02-27T14:34:01.271Z,26.40
2019-02-27T14:36:29.706Z,26.40
2019-02-27T14:38:58.192Z,25.80
2019-02-27T14:41:48.780Z,26.00
2019-02-27T14:44:16.155Z,25.50
2019-02-27T14:47:03.944Z,26.00
2019-02-27T14:49:44.928Z,25.80
2019-02-27T14:52:25.446Z,25.90
2019-02-27T14:55:06.152Z,25.80
2019-02-27T14:57:34.597Z,25.80
2019-02-27T15:00:05.603Z,26.00
2019-02-27T15:02:55.543Z,25.90
2019-02-27T15:05:23.261Z,25.80
2019-02-27T15:08:11.115Z,25.70
2019-02-27T15:10:51.968Z,25.90
2019-02-27T15:13:20.415Z,25.60
2019-02-27T15:15:48.840Z,25.80
2019-02-27T15:18:36.627Z,25.50
2019-02-27T15:21:05.129Z,25.60
2019-02-27T15:23:33.590Z,25.40
2019-02-27T15:26:02.056Z,25.70
2019-02-27T15:28:33.292Z,26.00
2019-02-27T15:31:21.409Z,26.10
2019-02-27T15:33:50.196Z,26.40
2019-02-27T15:36:18.644Z,27.10
2019-02-27T15:38:47.067Z,26.70
2019-02-27T15:41:35.421Z,26.80
2019-02-27T15:44:23.919Z,26.80
2019-02-27T15:46:53.503Z,27.20
2019-02-27T15:49:22.510Z,27.80
2019-02-27T15:51:50.931Z,27.90
2019-02-27T15:54:38.768Z,28.30
2019-02-27T15:57:07.223Z,28.70
2019-02-27T15:59:40.821Z,29.20
2019-02-27T16:02:17.775Z,29.30
2019-02-27T16:04:58.360Z,29.40
2019-02-27T16:07:26.819Z,29.50
2019-02-27T16:10:27.208Z,29.60
2019-02-27T16:13:15.015Z,29.60
2019-02-27T16:15:44.734Z,29.90
2019-02-27T16:18:13.810Z,30.30
2019-02-27T16:21:01.822Z,30.70
2019-02-27T16:23:49.615Z,30.90
2019-02-27T16:26:18.044Z,31.30
2019-02-27T16:28:48.907Z,31.70
2019-02-27T16:31:16.651Z,32.00
2019-02-27T16:33:45.103Z,32.40
2019-02-27T16:36:36.127Z,33.00
2019-02-27T16:39:15.543Z,33.40
2019-02-27T16:41:45.094Z,34.20
2019-02-27T16:44:33.147Z,35.20
2019-02-27T16:47:03.529Z,35.80
2019-02-27T16:49:31.749Z,36.70
2019-02-27T16:52:00.295Z,37.30
2019-02-27T16:54:48.343Z,37.70
2019-02-27T16:57:24.474Z,38.00
2019-02-27T16:59:57.846Z,38.30
2019-02-27T17:02:30.809Z,38.80
2019-02-27T17:05:08.783Z,39.20
2019-02-27T17:10:38.847Z,40.30
2019-02-27T17:13:07.266Z,40.60
2019-02-27T17:15:36.421Z,41.10
2019-02-27T17:18:27.923Z,41.60
2019-02-27T17:20:54.702Z,41.90
2019-02-27T17:23:23.147Z,42.20
2019-02-27T17:26:10.939Z,42.60
2019-02-27T17:28:39.358Z,42.90
2019-02-27T17:31:11.786Z,43.10
2019-02-27T17:33:38.629Z,43.40
2019-02-27T17:36:07.417Z,43.80
2019-02-27T17:38:35.931Z,44.10
2019-02-27T17:41:23.737Z,44.30
2019-02-27T17:43:52.178Z,44.60
2019-02-27T17:46:23.288Z,44.70
2019-02-27T17:49:11.078Z,44.80
2019-02-27T17:51:40.443Z,45.00
2019-02-27T17:54:09.139Z,45.40
2019-02-27T17:56:56.904Z,45.60
2019-02-27T17:59:29.024Z,45.70
2019-02-27T18:01:58.840Z,45.90
2019-02-27T18:04:27.719Z,46.00
2019-02-27T18:06:58.685Z,46.20
2019-02-27T18:09:27.214Z,46.30
2019-02-27T18:11:55.787Z,46.50
2019-02-27T18:14:46.755Z,46.80
2019-02-27T18:17:13.799Z,47.00
2019-02-27T18:20:01.598Z,47.00
2019-02-27T18:22:42.007Z,47.20
2019-02-27T18:25:22.887Z,47.50
2019-02-27T18:28:03.516Z,47.80
2019-02-27T18:30:32.045Z,47.90
2019-02-27T18:33:19.830Z,48.20
2019-02-27T18:35:48.279Z,48.30
2019-02-27T18:38:16.754Z,48.90
2019-02-27T18:41:04.583Z,49.30
2019-02-27T18:43:33.048Z,48.70
2019-02-27T18:46:01.496Z,48.90
2019-02-27T18:48:29.925Z,48.90
2019-02-27T18:50:58.647Z,49.10
2019-02-27T18:53:48.298Z,49.30
2019-02-27T18:56:17.162Z,49.20
2019-02-27T18:58:45.620Z,49.40
2019-02-27T19:01:14.401Z,49.40
2019-02-27T19:03:42.881Z,49.60
2019-02-27T19:06:30.642Z,49.80
2019-02-27T19:09:11.622Z,49.80
2019-02-27T19:11:40.107Z,49.80
2019-02-27T19:14:27.912Z,50.00
2019-02-27T19:16:56.718Z,50.10
2019-02-27T19:19:48.210Z,50.20
2019-02-27T19:22:34.020Z,50.20
2019-02-27T19:25:14.809Z,50.50
2019-02-27T19:27:43.327Z,51.20
2019-02-27T19:30:14.692Z,50.90
2019-02-27T19:32:43.199Z,51.20
2019-02-27T19:35:11.847Z,51.40
2019-02-27T19:37:40.307Z,51.50
2019-02-27T19:40:30.589Z,51.60
2019-02-27T19:43:18.138Z,51.80
2019-02-27T19:45:47.827Z,51.90
2019-02-27T19:51:30.953Z,52.40
2019-02-27T19:56:55.247Z,52.70
2019-02-27T19:59:24.891Z,53.10
2019-02-27T20:01:55.675Z,53.30
2019-02-27T20:04:24.138Z,53.50
2019-02-27T20:06:53.067Z,53.70
2019-02-27T20:09:22.036Z,53.90
2019-02-27T20:11:50.499Z,54.00
2019-02-27T20:14:18.987Z,54.20
2019-02-27T20:16:47.520Z,54.50
2019-02-27T20:19:22.450Z,54.60
2019-02-27T20:21:46.511Z,54.80
2019-02-27T20:24:35.587Z,54.90
2019-02-27T20:27:04.714Z,55.20
2019-02-27T20:29:33.542Z,55.40
2019-02-27T20:32:09.743Z,55.70
2019-02-27T20:34:38.606Z,55.80
2019-02-27T20:37:13.300Z,56.00
2019-02-27T20:39:41.787Z,56.20
2019-02-27T20:42:13.646Z,56.50
2019-02-27T20:44:40.922Z,56.70
2019-02-27T20:47:09.622Z,56.90
2019-02-27T20:49:38.488Z,57.10
2019-02-27T20:52:07.222Z,57.20
2019-02-27T20:54:35.736Z,57.50
2019-02-27T20:57:23.527Z,57.70
2019-02-27T20:59:52.496Z,57.80
2019-02-27T21:02:40.518Z,58.00
2019-02-27T21:05:11.599Z,58.10
2019-02-27T21:07:40.219Z,58.40
2019-02-27T21:10:20.885Z,58.70
2019-02-27T21:12:53.917Z,58.90
2019-02-27T21:15:29.295Z,59.00
2019-02-27T21:18:00.638Z,59.20
2019-02-27T21:20:39.370Z,59.40
2019-02-27T21:23:09.221Z,59.50
2019-02-27T21:25:37.996Z,59.60
2019-02-27T21:28:07.626Z,59.80
2019-02-27T21:30:36.419Z,60.20
2019-02-27T21:33:04.876Z,60.50
2019-02-27T21:35:33.330Z,60.70
2019-02-27T21:38:01.839Z,61.10
2019-02-27T21:40:49.635Z,61.40
2019-02-27T21:43:18.091Z,61.70
2019-02-27T21:45:46.590Z,62.20
2019-02-27T21:48:15.035Z,62.50
2019-02-27T21:50:45.214Z,63.00
2019-02-27T21:53:13.657Z,63.40
2019-02-27T21:55:44.692Z,63.70
2019-02-27T21:58:20.077Z,64.20
2019-02-27T22:00:45.012Z,64.50
2019-02-27T22:03:12.588Z,64.70
2019-02-27T22:05:52.546Z,64.90
2019-02-27T22:08:19.067Z,65.20
2019-02-27T22:10:53.086Z,65.50
2019-02-27T22:13:28.624Z,65.90
2019-02-27T22:15:47.956Z,66.20
2019-02-27T22:18:16.393Z,66.20
2019-02-27T22:21:04.177Z,66.30
2019-02-27T22:23:32.683Z,66.50
2019-02-27T22:26:03.083Z,66.70
2019-02-27T22:28:31.270Z,67.10
2019-02-27T22:30:59.742Z,67.40
2019-02-27T22:33:28.167Z,68.00
2019-02-27T22:35:56.595Z,68.30
2019-02-27T22:38:26.590Z,68.50
2019-02-27T22:40:55.390Z,69.70
2019-02-27T22:43:23.842Z,69.10
2019-02-27T22:45:52.364Z,69.60
2019-02-27T22:48:20.806Z,70.00
2019-02-27T22:50:49.230Z,70.20
2019-02-27T22:53:17.687Z,70.30
2019-02-27T22:55:46.123Z,70.70
2019-02-27T22:58:14.579Z,71.10
2019-02-27T23:01:01.664Z,71.40
2019-02-27T23:03:50.811Z,71.50
2019-02-27T23:06:31.020Z,71.60
2019-02-27T23:08:59.543Z,72.00
2019-02-27T23:11:28.068Z,72.40
2019-02-27T23:13:56.528Z,72.80
2019-02-27T23:16:25.100Z,73.10
2019-02-27T23:19:13.160Z,73.30
2019-02-27T23:21:41.684Z,73.40
2019-02-27T23:24:22.158Z,73.60
2019-02-27T23:26:54.359Z,73.90
2019-02-27T23:29:20.756Z,74.20
2019-02-27T23:31:49.194Z,74.70
2019-02-27T23:34:17.712Z,75.10
2019-02-27T23:36:46.148Z,75.80
2019-02-27T23:39:14.668Z,76.00
2019-02-27T23:41:43.091Z,76.10
2019-02-27T23:44:12.192Z,76.20
2019-02-27T23:46:48.828Z,76.30
2019-02-27T23:49:10.919Z,76.40
2019-02-27T23:51:58.699Z,76.80
2019-02-27T23:54:27.144Z,76.90
2019-02-27T23:56:55.558Z,77.50
2019-02-27T23:59:24.002Z,77.80
